Time;durP1;ratioP1;P1;durP2;ratioP2;P2;SDS_P1;SDS_P2;PMS_P1;PMS_P2;Temp;Humidity;BMP_temperature;BMP_pressure;BME280_temperature;BME280_humidity;BME280_pressure;Samples;Min_cycle;Max_cycle;Signal;HPM_P1;HPM_P2
2021/10/24 00:01:36;;;;;;;0.93;0.57;;;;;;;;;;5022066;28;20376;-81
2021/10/24 00:04:02;;;;;;;0.43;0.43;;;;;;;;;;5044144;28;20555;-81
2021/10/24 00:06:28;;;;;;;0.00;0.00;;;;;;;;;;5027168;28;20124;-81
2021/10/24 00:08:54;;;;;;;0.22;0.22;;;;;;;;;;5039843;28;20032;-81
2021/10/24 00:11:20;;;;;;;0.03;0.03;;;;;;;;;;5036683;28;20029;-81
2021/10/24 00:13:46;;;;;;;0.10;0.10;;;;;;;;;;5032546;28;20112;-83
2021/10/24 00:16:12;;;;;;;0.10;0.10;;;;;;;;;;5040268;28;20382;-84
2021/10/24 00:18:38;;;;;;;0.10;0.10;;;;;;;;;;5044564;28;20017;-80
2021/10/24 00:21:04;;;;;;;0.00;0.00;;;;;;;;;;5044824;28;20043;-81
2021/10/24 00:23:30;;;;;;;0.10;0.10;;;;;;;;;;5042669;28;20032;-82
2021/10/24 00:25:57;;;;;;;2.42;1.25;;;;;;;;;;5044155;28;20091;-83
2021/10/24 00:28:23;;;;;;;0.10;0.10;;;;;;;;;;5035145;28;20453;-80
2021/10/24 00:30:51;;;;;;;1.08;0.90;;;;;;;;;;5041188;28;20041;-83
2021/10/24 00:33:17;;;;;;;0.35;0.35;;;;;;;;;;5040376;28;20106;-81
2021/10/24 00:35:43;;;;;;;0.00;0.00;;;;;;;;;;5039489;28;20505;-81
2021/10/24 00:38:09;;;;;;;3.10;0.95;;;;;;;;;;5037390;28;20033;-81
2021/10/24 00:40:35;;;;;;;0.20;0.20;;;;;;;;;;5041017;28;20036;-81
2021/10/24 00:43:02;;;;;;;0.10;0.10;;;;;;;;;;5036070;28;20128;-79
2021/10/24 00:45:28;;;;;;;0.30;0.30;;;;;;;;;;5038828;28;20025;-80
2021/10/24 00:47:54;;;;;;;0.20;0.20;;;;;;;;;;5041783;28;20111;-81
2021/10/24 00:50:21;;;;;;;0.10;0.10;;;;;;;;;;5038932;28;20057;-81
2021/10/24 00:52:47;;;;;;;;;;;;;;;;;;5042853;28;20620;-83
2021/10/24 00:55:14;;;;;;;0.00;0.00;;;;;;;;;;5040439;28;20007;-82
2021/10/24 00:57:41;;;;;;;0.08;0.08;;;;;;;;;;5042280;28;20040;-82
2021/10/24 01:00:08;;;;;;;0.15;0.15;;;;;;;;;;5034926;28;20043;-83
2021/10/24 01:02:38;;;;;;;1.65;0.63;;;;;;;;;;5041560;28;20052;-80
2021/10/24 01:05:05;;;;;;;0.10;0.10;;;;;;;;;;5042432;28;20029;-80
2021/10/24 01:07:32;;;;;;;0.10;0.10;;;;;;;;;;5043130;28;20106;-80
2021/10/24 01:09:59;;;;;;;0.52;0.25;;;;;;;;;;5034262;28;20025;-83
2021/10/24 01:12:25;;;;;;;0.28;0.28;;;;;;;;;;5040367;28;20056;-83
2021/10/24 01:14:51;;;;;;;0.20;0.20;;;;;;;;;;5032505;28;20040;-80
2021/10/24 01:17:18;;;;;;;0.20;0.20;;;;;;;;;;5036259;28;20494;-81
2021/10/24 01:19:44;;;;;;;0.10;0.10;;;;;;;;;;5035932;28;20028;-83
2021/10/24 01:22:10;;;;;;;0.10;0.10;;;;;;;;;;5034114;28;20040;-81
2021/10/24 01:24:36;;;;;;;0.10;0.10;;;;;;;;;;5028924;28;20034;-82
2021/10/24 01:27:03;;;;;;;0.80;0.55;;;;;;;;;;5036379;28;20029;-82
2021/10/24 01:29:29;;;;;;;0.20;0.20;;;;;;;;;;5033349;28;20420;-83
2021/10/24 01:31:55;;;;;;;0.10;0.10;;;;;;;;;;5015098;28;20036;-80
2021/10/24 01:34:21;;;;;;;0.20;0.20;;;;;;;;;;5037285;28;20121;-82
2021/10/24 01:36:47;;;;;;;0.10;0.10;;;;;;;;;;5037313;28;20744;-80
2021/10/24 01:39:13;;;;;;;0.10;0.10;;;;;;;;;;5042432;28;20025;-80
2021/10/24 01:41:40;;;;;;;0.03;0.03;;;;;;;;;;5041401;28;20500;-81
2021/10/24 01:44:06;;;;;;;0.00;0.00;;;;;;;;;;5031268;28;20519;-81
2021/10/24 01:46:32;;;;;;;0.10;0.10;;;;;;;;;;5039113;28;20503;-82
2021/10/24 01:48:59;;;;;;;0.10;0.10;;;;;;;;;;5040240;28;20048;-83
2021/10/24 01:51:25;;;;;;;0.25;0.25;;;;;;;;;;5039615;28;20091;-84
2021/10/24 01:53:51;;;;;;;0.10;0.10;;;;;;;;;;5040265;28;20413;-81
2021/10/24 01:56:18;;;;;;;0.07;0.07;;;;;;;;;;5036278;28;20563;-84
2021/10/24 01:58:44;;;;;;;0.10;0.10;;;;;;;;;;5015621;28;20026;-83
2021/10/24 02:01:11;;;;;;;0.28;0.28;;;;;;;;;;5027156;28;20840;-84
2021/10/24 02:03:37;;;;;;;0.30;0.30;;;;;;;;;;5022453;28;20098;-79
2021/10/24 02:06:04;;;;;;;0.73;0.73;;;;;;;;;;5043663;28;20098;-84
2021/10/24 02:08:30;;;;;;;0.10;0.10;;;;;;;;;;5039886;28;20037;-83
2021/10/24 02:10:56;;;;;;;0.45;0.45;;;;;;;;;;5037936;28;20032;-84
2021/10/24 02:13:22;;;;;;;0.00;0.00;;;;;;;;;;5040792;28;20177;-84
2021/10/24 02:15:48;;;;;;;0.10;0.10;;;;;;;;;;5039312;28;20802;-80
2021/10/24 02:18:14;;;;;;;0.85;0.85;;;;;;;;;;5047313;28;20036;-83
2021/10/24 02:20:44;;;;;;;0.10;0.10;;;;;;;;;;5040663;28;20025;-84
2021/10/24 02:23:10;;;;;;;0.20;0.20;;;;;;;;;;5036946;28;20158;-84
2021/10/24 02:25:38;;;;;;;0.10;0.10;;;;;;;;;;5035090;28;20057;-83
2021/10/24 02:28:04;;;;;;;0.10;0.10;;;;;;;;;;5045129;28;20037;-84
2021/10/24 02:30:30;;;;;;;0.20;0.20;;;;;;;;;;5034086;28;20068;-82
2021/10/24 02:32:57;;;;;;;0.10;0.10;;;;;;;;;;5040463;28;20037;-83
2021/10/24 02:35:25;;;;;;;0.10;0.10;;;;;;;;;;5042771;28;20037;-83
2021/10/24 02:37:52;;;;;;;0.13;0.13;;;;;;;;;;5042521;28;20125;-83
2021/10/24 02:40:18;;;;;;;0.00;0.00;;;;;;;;;;5021715;28;20434;-83
2021/10/24 02:42:45;;;;;;;0.10;0.10;;;;;;;;;;5045364;28;20063;-83
2021/10/24 02:45:11;;;;;;;0.13;0.13;;;;;;;;;;5038967;28;20037;-83
2021/10/24 02:47:39;;;;;;;0.10;0.10;;;;;;;;;;5043303;28;20021;-83
2021/10/24 02:50:06;;;;;;;0.28;0.28;;;;;;;;;;5041544;28;20025;-83
2021/10/24 02:52:32;;;;;;;0.63;0.63;;;;;;;;;;5038749;28;20059;-80
2021/10/24 02:54:58;;;;;;;0.08;0.08;;;;;;;;;;5025542;28;20029;-80
2021/10/24 02:57:24;;;;;;;0.30;0.30;;;;;;;;;;5044925;28;20162;-82
2021/10/24 02:59:50;;;;;;;1.90;1.33;;;;;;;;;;5041105;28;20071;-82
2021/10/24 03:02:16;;;;;;;0.47;0.47;;;;;;;;;;5039791;28;20052;-82
2021/10/24 03:04:42;;;;;;;0.10;0.10;;;;;;;;;;5035897;28;20041;-82
2021/10/24 03:07:08;;;;;;;0.10;0.10;;;;;;;;;;5027316;28;20378;-80
2021/10/24 03:09:34;;;;;;;0.68;0.68;;;;;;;;;;5041706;28;20120;-80
2021/10/24 03:12:00;;;;;;;0.38;0.38;;;;;;;;;;5044614;28;21012;-83
2021/10/24 03:14:27;;;;;;;0.20;0.20;;;;;;;;;;5042469;28;20022;-83
2021/10/24 03:16:53;;;;;;;0.20;0.20;;;;;;;;;;5038829;28;20063;-84
2021/10/24 03:19:20;;;;;;;0.20;0.20;;;;;;;;;;5041912;28;20073;-80
2021/10/24 03:21:46;;;;;;;0.00;0.00;;;;;;;;;;5029527;28;20032;-81
2021/10/24 03:24:13;;;;;;;0.30;0.30;;;;;;;;;;5039695;28;20033;-80
2021/10/24 03:26:39;;;;;;;0.68;0.30;;;;;;;;;;5042546;28;20037;-83
2021/10/24 03:29:05;;;;;;;0.50;0.50;;;;;;;;;;5039486;28;20069;-83
2021/10/24 03:31:32;;;;;;;0.15;0.15;;;;;;;;;;5040147;28;20056;-80
2021/10/24 03:33:58;;;;;;;;;;;;;;;;;;5029989;28;20048;-81
2021/10/24 03:36:24;;;;;;;0.10;0.10;;;;;;;;;;5043633;28;20296;-80
2021/10/24 03:38:50;;;;;;;0.10;0.10;;;;;;;;;;5043811;28;20821;-83
2021/10/24 03:41:16;;;;;;;0.10;0.10;;;;;;;;;;5042398;28;20413;-80
2021/10/24 03:43:43;;;;;;;0.52;0.40;;;;;;;;;;5040668;28;20520;-83
2021/10/24 03:46:09;;;;;;;1.88;0.70;;;;;;;;;;5037878;28;20051;-80
2021/10/24 03:48:35;;;;;;;0.30;0.30;;;;;;;;;;5036236;28;20042;-83
2021/10/24 03:51:01;;;;;;;0.93;0.50;;;;;;;;;;5033609;28;20121;-83
2021/10/24 03:53:27;;;;;;;0.00;0.00;;;;;;;;;;5039726;28;20081;-83
2021/10/24 03:55:53;;;;;;;0.20;0.20;;;;;;;;;;5043684;28;20514;-83
2021/10/24 03:58:19;;;;;;;0.10;0.10;;;;;;;;;;5023759;28;20037;-84
2021/10/24 04:00:45;;;;;;;0.10;0.10;;;;;;;;;;5038987;28;20041;-83
2021/10/24 04:03:12;;;;;;;0.30;0.30;;;;;;;;;;5044886;28;20236;-83
2021/10/24 04:05:38;;;;;;;0.10;0.10;;;;;;;;;;5023142;28;20098;-83
2021/10/24 04:08:04;;;;;;;0.52;0.52;;;;;;;;;;5038660;28;20044;-83
2021/10/24 04:10:30;;;;;;;0.10;0.10;;;;;;;;;;5032070;28;20025;-83
2021/10/24 04:12:57;;;;;;;0.15;0.15;;;;;;;;;;5038901;28;20045;-82
2021/10/24 04:15:24;;;;;;;1.20;0.95;;;;;;;;;;5038453;28;20028;-83
2021/10/24 04:17:50;;;;;;;0.30;0.30;;;;;;;;;;5041007;28;20862;-83
2021/10/24 04:20:18;;;;;;;3.92;0.63;;;;;;;;;;5042305;28;20029;-82
2021/10/24 04:22:45;;;;;;;0.08;0.08;;;;;;;;;;5037977;28;20044;-82
2021/10/24 04:25:12;;;;;;;0.20;0.20;;;;;;;;;;5040800;28;20040;-83
2021/10/24 04:27:39;;;;;;;0.10;0.10;;;;;;;;;;5040037;28;20029;-83
2021/10/24 04:30:06;;;;;;;0.10;0.10;;;;;;;;;;5040317;28;20520;-82
2021/10/24 04:32:32;;;;;;;0.38;0.38;;;;;;;;;;5041967;28;20036;-82
2021/10/24 04:34:58;;;;;;;0.10;0.10;;;;;;;;;;5042299;28;20033;-82
2021/10/24 04:37:24;;;;;;;0.20;0.20;;;;;;;;;;5033579;28;20527;-83
2021/10/24 04:39:50;;;;;;;0.10;0.10;;;;;;;;;;5040662;28;20107;-84
2021/10/24 04:42:17;;;;;;;0.22;0.22;;;;;;;;;;5023836;28;20048;-81
2021/10/24 04:44:44;;;;;;;0.10;0.10;;;;;;;;;;5033323;28;20163;-83
2021/10/24 04:47:10;;;;;;;0.70;0.52;;;;;;;;;;5033698;28;20288;-82
2021/10/24 04:49:36;;;;;;;0.20;0.20;;;;;;;;;;5041841;28;20053;-84
2021/10/24 04:52:02;;;;;;;0.40;0.40;;;;;;;;;;5025302;28;20823;-84
2021/10/24 04:54:28;;;;;;;0.20;0.20;;;;;;;;;;5034478;28;20037;-83
2021/10/24 04:56:55;;;;;;;0.07;0.07;;;;;;;;;;5041325;28;20025;-83
2021/10/24 04:59:21;;;;;;;0.57;0.57;;;;;;;;;;5033377;28;20032;-83
2021/10/24 05:01:48;;;;;;;0.57;0.57;;;;;;;;;;5039913;28;20025;-83
2021/10/24 05:04:14;;;;;;;0.10;0.10;;;;;;;;;;5031564;28;20035;-83
2021/10/24 05:06:40;;;;;;;0.43;0.43;;;;;;;;;;5034858;28;20132;-83
2021/10/24 05:09:06;;;;;;;0.10;0.10;;;;;;;;;;5039773;28;20044;-83
2021/10/24 05:11:32;;;;;;;0.20;0.20;;;;;;;;;;5037191;28;20131;-83
2021/10/24 05:14:02;;;;;;;0.10;0.10;;;;;;;;;;5036817;28;20773;-83
2021/10/24 05:16:28;;;;;;;0.10;0.10;;;;;;;;;;5037744;28;20484;-82
2021/10/24 05:18:54;;;;;;;0.10;0.10;;;;;;;;;;5032671;28;20029;-83
2021/10/24 05:21:20;;;;;;;0.47;0.47;;;;;;;;;;5042471;28;20020;-82
2021/10/24 05:23:46;;;;;;;0.00;0.00;;;;;;;;;;5031528;28;20079;-83
2021/10/24 05:26:12;;;;;;;0.80;0.80;;;;;;;;;;5035616;28;20068;-83
2021/10/24 05:28:38;;;;;;;0.00;0.00;;;;;;;;;;5042656;28;20511;-82
2021/10/24 05:31:04;;;;;;;0.10;0.10;;;;;;;;;;5039137;28;20056;-83
2021/10/24 05:33:30;;;;;;;0.63;0.63;;;;;;;;;;5036451;28;20048;-84
2021/10/24 05:35:56;;;;;;;0.10;0.10;;;;;;;;;;5037109;28;20061;-84
2021/10/24 05:38:22;;;;;;;0.10;0.10;;;;;;;;;;5036007;28;20416;-84
2021/10/24 05:40:49;;;;;;;0.20;0.20;;;;;;;;;;5035045;28;20397;-82
2021/10/24 05:43:15;;;;;;;1.20;1.10;;;;;;;;;;5042368;28;20501;-82
2021/10/24 05:45:44;;;;;;;0.15;0.15;;;;;;;;;;5033257;28;20494;-84
2021/10/24 05:48:13;;;;;;;0.10;0.10;;;;;;;;;;5037580;28;20033;-84
2021/10/24 05:50:40;;;;;;;0.03;0.03;;;;;;;;;;5034064;28;20489;-83
2021/10/24 05:53:06;;;;;;;0.10;0.10;;;;;;;;;;5022012;28;20047;-83
2021/10/24 05:55:33;;;;;;;0.10;0.10;;;;;;;;;;5034801;28;20059;-83
2021/10/24 05:57:59;;;;;;;0.10;0.10;;;;;;;;;;5028380;28;20029;-81
2021/10/24 06:00:25;;;;;;;0.87;0.87;;;;;;;;;;5031272;28;20041;-83
2021/10/24 06:02:51;;;;;;;0.20;0.20;;;;;;;;;;5031192;28;20315;-85
2021/10/24 06:05:18;;;;;;;0.10;0.10;;;;;;;;;;5040555;28;20041;-83
2021/10/24 06:07:44;;;;;;;0.10;0.10;;;;;;;;;;5041070;28;20056;-83
2021/10/24 06:10:15;;;;;;;0.30;0.30;;;;;;;;;;5037807;28;20302;-85
2021/10/24 06:12:53;;;;;;;0.85;0.63;;;;;;;;;;5040540;28;20088;-85
2021/10/24 06:15:20;;;;;;;0.20;0.20;;;;;;;;;;5042369;28;20059;-86
2021/10/24 06:17:46;;;;;;;;;;;;;;;;;;5033247;28;20030;-86
2021/10/24 06:20:13;;;;;;;0.13;0.13;;;;;;;;;;5035391;28;20649;-87
2021/10/24 06:22:39;;;;;;;0.45;0.45;;;;;;;;;;5041388;28;20033;-85
2021/10/24 06:25:06;;;;;;;0.10;0.10;;;;;;;;;;5041176;28;20061;-85
2021/10/24 06:27:32;;;;;;;0.10;0.10;;;;;;;;;;5044119;28;20116;-85
2021/10/24 06:29:58;;;;;;;2.30;2.08;;;;;;;;;;5039839;28;20029;-85
2021/10/24 06:32:24;;;;;;;0.93;0.93;;;;;;;;;;5041468;28;20039;-84
2021/10/24 06:34:50;;;;;;;0.10;0.10;;;;;;;;;;5041009;28;20559;-85
2021/10/24 06:37:20;;;;;;;0.10;0.10;;;;;;;;;;5042061;28;20776;-85
2021/10/24 06:39:46;;;;;;;0.32;0.32;;;;;;;;;;5032024;28;20440;-84
2021/10/24 06:42:12;;;;;;;0.00;0.00;;;;;;;;;;5025764;28;20493;-84
2021/10/24 06:44:38;;;;;;;0.63;0.60;;;;;;;;;;5041454;28;20440;-83
2021/10/24 06:47:05;;;;;;;0.50;0.30;;;;;;;;;;5042113;28;20043;-84
2021/10/24 06:49:31;;;;;;;0.20;0.20;;;;;;;;;;5040822;28;20051;-85
2021/10/24 06:52:03;;;;;;;0.00;0.00;;;;;;;;;;5041799;28;20792;-86
2021/10/24 06:54:29;;;;;;;0.00;0.00;;;;;;;;;;5039850;28;20511;-83
2021/10/24 06:56:55;;;;;;;0.10;0.10;;;;;;;;;;5041927;28;20037;-83
2021/10/24 06:59:21;;;;;;;0.05;0.05;;;;;;;;;;5027179;28;20029;-85
2021/10/24 07:01:47;;;;;;;0.10;0.10;;;;;;;;;;5044785;28;20056;-84
2021/10/24 07:04:14;;;;;;;0.30;0.30;;;;;;;;;;5028065;28;20056;-84
2021/10/24 07:06:40;;;;;;;0.10;0.10;;;;;;;;;;5021276;28;20025;-85
2021/10/24 07:09:06;;;;;;;0.10;0.10;;;;;;;;;;5043360;28;20056;-84
2021/10/24 07:11:32;;;;;;;0.10;0.10;;;;;;;;;;5044663;28;20036;-85
2021/10/24 07:13:58;;;;;;;0.20;0.20;;;;;;;;;;5042631;28;20029;-82
2021/10/24 07:16:24;;;;;;;0.60;0.60;;;;;;;;;;5043926;28;20283;-84
2021/10/24 07:18:51;;;;;;;1.83;1.17;;;;;;;;;;5044716;28;20713;-85
2021/10/24 07:21:17;;;;;;;0.65;0.65;;;;;;;;;;5046678;28;20035;-84
2021/10/24 07:23:43;;;;;;;0.10;0.10;;;;;;;;;;5044011;28;20033;-85
2021/10/24 07:26:10;;;;;;;0.10;0.10;;;;;;;;;;5027429;28;20460;-85
2021/10/24 07:28:36;;;;;;;0.10;0.10;;;;;;;;;;5044477;28;20033;-84
2021/10/24 07:31:02;;;;;;;0.03;0.03;;;;;;;;;;5044712;28;20434;-84
2021/10/24 07:33:28;;;;;;;0.30;0.30;;;;;;;;;;5046861;28;20033;-85
2021/10/24 07:35:55;;;;;;;0.22;0.20;;;;;;;;;;5041663;28;20379;-84
2021/10/24 07:38:21;;;;;;;0.20;0.20;;;;;;;;;;5044195;28;20033;-85
2021/10/24 07:40:49;;;;;;;0.13;0.13;;;;;;;;;;5046572;28;20065;-85
2021/10/24 07:43:15;;;;;;;1.08;0.32;;;;;;;;;;5044187;28;20037;-84
2021/10/24 07:45:41;;;;;;;0.10;0.10;;;;;;;;;;5026117;28;20107;-84
2021/10/24 07:48:08;;;;;;;0.40;0.40;;;;;;;;;;5045280;28;20025;-84
2021/10/24 07:50:34;;;;;;;0.13;0.13;;;;;;;;;;5043640;28;20036;-84
2021/10/24 07:53:01;;;;;;;0.00;0.00;;;;;;;;;;5043436;28;20326;-85
2021/10/24 07:55:27;;;;;;;0.10;0.10;;;;;;;;;;5033084;28;20478;-85
2021/10/24 07:57:55;;;;;;;0.23;0.23;;;;;;;;;;5043487;28;20072;-84
2021/10/24 08:00:21;;;;;;;0.10;0.10;;;;;;;;;;5045190;28;20036;-84
2021/10/24 08:02:47;;;;;;;0.20;0.20;;;;;;;;;;5042638;28;20920;-84
2021/10/24 08:05:13;;;;;;;0.10;0.10;;;;;;;;;;5043521;28;20079;-85
2021/10/24 08:07:39;;;;;;;0.17;0.17;;;;;;;;;;5041815;28;20299;-84
2021/10/24 08:10:06;;;;;;;0.10;0.10;;;;;;;;;;5043793;28;20032;-85
2021/10/24 08:12:32;;;;;;;;;;;;;;;;;;5008910;28;20039;-84
2021/10/24 08:14:59;;;;;;;0.10;0.10;;;;;;;;;;5040262;28;19999;-85
2021/10/24 08:17:25;;;;;;;0.20;0.20;;;;;;;;;;5039900;28;20132;-84
2021/10/24 08:19:51;;;;;;;0.10;0.10;;;;;;;;;;5043431;28;20468;-84
2021/10/24 08:22:19;;;;;;;0.13;0.13;;;;;;;;;;5042118;28;20434;-84
2021/10/24 08:24:45;;;;;;;0.10;0.10;;;;;;;;;;5043731;28;20025;-84
2021/10/24 08:27:11;;;;;;;0.10;0.10;;;;;;;;;;5043929;28;20386;-84
2021/10/24 08:29:39;;;;;;;0.20;0.20;;;;;;;;;;5041788;28;20104;-84
2021/10/24 08:32:09;;;;;;;0.20;0.20;;;;;;;;;;5043520;28;20044;-83
2021/10/24 08:34:35;;;;;;;0.20;0.20;;;;;;;;;;5043167;28;20477;-84
2021/10/24 08:37:02;;;;;;;0.10;0.10;;;;;;;;;;5041774;28;20032;-84
2021/10/24 08:39:28;;;;;;;0.10;0.10;;;;;;;;;;5023453;28;20029;-82
2021/10/24 08:41:55;;;;;;;0.20;0.20;;;;;;;;;;5042217;28;20086;-83
2021/10/24 08:44:21;;;;;;;0.10;0.10;;;;;;;;;;5036755;28;20033;-84
2021/10/24 08:46:47;;;;;;;0.05;0.03;;;;;;;;;;5022767;28;20404;-84
2021/10/24 08:49:14;;;;;;;0.10;0.10;;;;;;;;;;5031106;28;20038;-83
2021/10/24 08:51:40;;;;;;;0.10;0.10;;;;;;;;;;5044024;28;20382;-82
2021/10/24 08:54:08;;;;;;;0.15;0.15;;;;;;;;;;5044474;28;20094;-84
2021/10/24 08:56:34;;;;;;;0.45;0.43;;;;;;;;;;5038568;28;20064;-84
2021/10/24 08:59:01;;;;;;;0.20;0.20;;;;;;;;;;5038827;28;20025;-84
2021/10/24 09:01:27;;;;;;;0.00;0.00;;;;;;;;;;5030366;28;20029;-83
2021/10/24 09:04:12;;;;;;;0.10;0.10;;;;;;;;;;5028462;28;20155;-83
2021/10/24 09:06:55;;;;;;;2.17;0.30;;;;;;;;;;5027592;28;20550;-84
2021/10/24 09:09:23;;;;;;;0.10;0.10;;;;;;;;;;5027966;28;20025;-83
2021/10/24 09:11:57;;;;;;;0.28;0.28;;;;;;;;;;5022395;28;20413;-84
2021/10/24 09:14:35;;;;;;;0.13;0.13;;;;;;;;;;5039882;28;20493;-84
2021/10/24 09:17:01;;;;;;;0.00;0.00;;;;;;;;;;5025874;28;20036;-84
2021/10/24 09:19:32;;;;;;;0.10;0.10;;;;;;;;;;5039797;28;20033;-84
2021/10/24 09:22:11;;;;;;;0.20;0.20;;;;;;;;;;5039605;28;20033;-85
2021/10/24 09:24:37;;;;;;;0.47;0.47;;;;;;;;;;5041726;28;20048;-84
2021/10/24 09:27:03;;;;;;;0.10;0.10;;;;;;;;;;5039690;28;20513;-85
2021/10/24 09:29:29;;;;;;;0.20;0.20;;;;;;;;;;5038256;28;20037;-84
2021/10/24 09:31:55;;;;;;;0.07;0.07;;;;;;;;;;5040434;28;20037;-83
2021/10/24 09:34:22;;;;;;;0.30;0.30;;;;;;;;;;5040166;28;20037;-85
2021/10/24 09:36:48;;;;;;;;;;;;;;;;;;5042815;28;20025;-83
2021/10/24 09:39:14;;;;;;;0.10;0.10;;;;;;;;;;5042254;28;19970;-83
2021/10/24 09:41:40;;;;;;;0.30;0.30;;;;;;;;;;5039843;28;20033;-83
2021/10/24 09:44:13;;;;;;;0.10;0.10;;;;;;;;;;5037793;28;20033;-83
2021/10/24 09:46:50;;;;;;;0.10;0.10;;;;;;;;;;5009122;28;20796;-81
2021/10/24 09:49:17;;;;;;;0.03;0.03;;;;;;;;;;5026172;28;20053;-81
2021/10/24 09:51:43;;;;;;;;;;;;;;;;;;5024362;28;20072;-83
2021/10/24 09:54:17;;;;;;;0.32;0.32;;;;;;;;;;5026342;28;19953;-81
2021/10/24 09:56:43;;;;;;;0.10;0.10;;;;;;;;;;5033400;28;20029;-81
2021/10/24 09:59:10;;;;;;;0.10;0.10;;;;;;;;;;5034439;28;20033;-80
2021/10/24 10:01:36;;;;;;;0.20;0.20;;;;;;;;;;5039363;28;20040;-81
2021/10/24 10:04:03;;;;;;;0.10;0.10;;;;;;;;;;5040877;28;20061;-87
2021/10/24 10:06:29;;;;;;;0.28;0.28;;;;;;;;;;5040030;28;20029;-82
2021/10/24 10:08:56;;;;;;;0.20;0.20;;;;;;;;;;5035892;28;20680;-82
2021/10/24 10:11:26;;;;;;;0.00;0.00;;;;;;;;;;5026573;28;20034;-83
2021/10/24 10:14:00;;;;;;;0.22;0.20;;;;;;;;;;5010056;28;20454;-85
2021/10/24 10:16:33;;;;;;;0.10;0.10;;;;;;;;;;5036812;28;20055;-84
2021/10/24 10:19:00;;;;;;;0.10;0.10;;;;;;;;;;5040153;28;20128;-83
2021/10/24 10:21:29;;;;;;;0.10;0.10;;;;;;;;;;5039844;28;20820;-83
2021/10/24 10:23:55;;;;;;;3.92;0.50;;;;;;;;;;5039731;28;20025;-83
2021/10/24 10:26:34;;;;;;;0.10;0.10;;;;;;;;;;5041246;28;20120;-83
2021/10/24 10:29:00;;;;;;;0.10;0.10;;;;;;;;;;5041557;28;20025;-83
2021/10/24 10:31:26;;;;;;;0.10;0.10;;;;;;;;;;5042846;28;20037;-83
2021/10/24 10:34:00;;;;;;;0.10;0.10;;;;;;;;;;5024804;28;20076;-83
2021/10/24 10:36:55;;;;;;;0.10;0.10;;;;;;;;;;5030639;28;20505;-83
2021/10/24 10:39:34;;;;;;;0.10;0.10;;;;;;;;;;5031796;28;20072;-82
2021/10/24 10:42:04;;;;;;;0.10;0.10;;;;;;;;;;5039912;28;20786;-81
2021/10/24 10:44:30;;;;;;;0.10;0.10;;;;;;;;;;5035404;28;20053;-81
2021/10/24 10:46:56;;;;;;;0.40;0.40;;;;;;;;;;5032330;28;20055;-81
2021/10/24 10:49:22;;;;;;;0.10;0.10;;;;;;;;;;5038305;28;20279;-81
2021/10/24 10:51:48;;;;;;;0.00;0.00;;;;;;;;;;5031269;28;20073;-81
2021/10/24 10:54:17;;;;;;;0.10;0.10;;;;;;;;;;5030437;28;20036;-80
2021/10/24 10:56:54;;;;;;;0.10;0.10;;;;;;;;;;5031248;28;20060;-81
2021/10/24 10:59:29;;;;;;;0.65;0.65;;;;;;;;;;5031917;28;20037;-81
2021/10/24 11:01:55;;;;;;;0.28;0.28;;;;;;;;;;5033779;28;20036;-80
2021/10/24 11:04:22;;;;;;;0.32;0.32;;;;;;;;;;5031639;28;20030;-81
2021/10/24 11:06:48;;;;;;;0.10;0.10;;;;;;;;;;5034738;28;20037;-81
2021/10/24 11:09:32;;;;;;;0.10;0.10;;;;;;;;;;5036644;28;20037;-82
2021/10/24 11:11:59;;;;;;;0.10;0.10;;;;;;;;;;5013745;28;20379;-82
2021/10/24 11:14:41;;;;;;;0.28;0.22;;;;;;;;;;5033345;28;20114;-83
2021/10/24 11:17:07;;;;;;;0.20;0.20;;;;;;;;;;5034261;28;20028;-81
2021/10/24 11:19:37;;;;;;;0.37;0.20;;;;;;;;;;5037228;28;20033;-83
2021/10/24 11:22:04;;;;;;;0.10;0.10;;;;;;;;;;5034021;28;20311;-82
2021/10/24 11:24:33;;;;;;;0.10;0.10;;;;;;;;;;5034267;28;20842;-82
2021/10/24 11:27:00;;;;;;;0.00;0.00;;;;;;;;;;5033039;28;20107;-82
2021/10/24 11:29:26;;;;;;;;;;;;;;;;;;5018291;28;20202;-83
2021/10/24 11:32:10;;;;;;;0.10;0.10;;;;;;;;;;5030919;28;20452;-83
2021/10/24 11:34:36;;;;;;;0.22;0.22;;;;;;;;;;5030950;28;20041;-82
2021/10/24 11:37:02;;;;;;;0.40;0.40;;;;;;;;;;5030300;28;20025;-82
2021/10/24 11:39:28;;;;;;;0.13;0.13;;;;;;;;;;5030100;28;20493;-82
2021/10/24 11:42:10;;;;;;;0.30;0.30;;;;;;;;;;5031531;28;20024;-82
2021/10/24 11:44:36;;;;;;;0.30;0.30;;;;;;;;;;5028879;28;20061;-82
2021/10/24 11:47:06;;;;;;;0.13;0.13;;;;;;;;;;5031869;28;20055;-81
2021/10/24 11:49:43;;;;;;;0.52;0.43;;;;;;;;;;5030993;28;20509;-81
2021/10/24 11:52:10;;;;;;;0.10;0.10;;;;;;;;;;5034368;28;20541;-81
2021/10/24 11:54:36;;;;;;;0.20;0.20;;;;;;;;;;5033435;28;20514;-81
2021/10/24 11:59:49;;;;;;;0.05;0.05;;;;;;;;;;5032399;28;20033;-82
2021/10/24 12:02:15;;;;;;;0.80;0.70;;;;;;;;;;5034235;28;20025;-82
2021/10/24 12:04:41;;;;;;;0.97;0.17;;;;;;;;;;5033271;28;20044;-82
2021/10/24 12:07:08;;;;;;;0.10;0.10;;;;;;;;;;5034451;28;20037;-82
2021/10/24 12:09:35;;;;;;;0.10;0.10;;;;;;;;;;5030781;28;20072;-82
2021/10/24 12:12:05;;;;;;;0.20;0.20;;;;;;;;;;5028838;28;20052;-81
2021/10/24 12:14:31;;;;;;;0.10;0.10;;;;;;;;;;5032763;28;20042;-82
2021/10/24 12:16:58;;;;;;;0.33;0.33;;;;;;;;;;5029747;28;20044;-82
2021/10/24 12:19:33;;;;;;;;;;;;;;;;;;5030449;28;20048;-82
2021/10/24 12:22:04;;;;;;;0.13;0.13;;;;;;;;;;5035031;28;19908;-82
2021/10/24 12:24:50;;;;;;;0.10;0.10;;;;;;;;;;5044671;28;20041;-81
2021/10/24 12:27:16;;;;;;;0.30;0.30;;;;;;;;;;5047568;28;20028;-81
2021/10/24 12:29:54;;;;;;;0.10;0.10;;;;;;;;;;5046375;28;20033;-79
2021/10/24 12:32:20;;;;;;;1.08;0.52;;;;;;;;;;5044796;28;20049;-82
2021/10/24 12:34:59;;;;;;;0.00;0.00;;;;;;;;;;5029858;28;20437;-83
2021/10/24 12:37:26;;;;;;;0.80;0.30;;;;;;;;;;5037520;28;20568;-82
2021/10/24 12:40:12;;;;;;;0.20;0.20;;;;;;;;;;5046054;28;20073;-81
2021/10/24 12:42:38;;;;;;;0.32;0.32;;;;;;;;;;5046602;28;20040;-81
2021/10/24 12:46:51;;;;;;;0.60;0.30;;;;;;;;;;5075056;27;20452;-84
2021/10/24 12:49:17;;;;;;;0.20;0.20;;;;;;;;;;5090543;28;20039;-87
2021/10/24 12:51:45;;;;;;;0.20;0.20;;;;;;;;;;5077368;28;20031;-86
2021/10/24 12:54:12;;;;;;;0.20;0.20;;;;;;;;;;5060508;28;20029;-87
2021/10/24 12:56:40;;;;;;;0.30;0.22;;;;;;;;;;5059978;28;20041;-86
2021/10/24 12:59:06;;;;;;;0.13;0.13;;;;;;;;;;5063586;28;20515;-85
2021/10/24 13:01:36;;;;;;;0.25;0.15;;;;;;;;;;5076202;28;20048;-86
2021/10/24 13:04:04;;;;;;;0.00;0.00;;;;;;;;;;5071376;28;20033;-87
2021/10/24 13:06:30;;;;;;;7.78;0.43;;;;;;;;;;5077766;28;20033;-85
2021/10/24 13:08:57;;;;;;;0.00;0.00;;;;;;;;;;5069542;28;20028;-86
2021/10/24 13:11:23;;;;;;;;;;;;;;;;;;5090102;28;20029;-86
2021/10/24 13:13:50;;;;;;;7.07;0.47;;;;;;;;;;5073847;28;19912;-85
2021/10/24 13:16:16;;;;;;;0.47;0.47;;;;;;;;;;5084487;28;20036;-85
2021/10/24 13:18:42;;;;;;;1.20;0.75;;;;;;;;;;5087301;28;20027;-86
2021/10/24 13:22:53;;;;;;;0.15;0.15;;;;;;;;;;5076077;28;20040;-86
2021/10/24 13:23:58;;;;;;;0.10;0.10;;;;;;;;;;5074160;28;20162;-86
2021/10/24 13:26:24;;;;;;;0.10;0.10;;;;;;;;;;5089421;28;20052;-86
2021/10/24 13:28:50;;;;;;;0.00;0.00;;;;;;;;;;5077072;28;20033;-87
2021/10/24 13:31:16;;;;;;;0.22;0.22;;;;;;;;;;5058027;28;20036;-85
2021/10/24 13:33:42;;;;;;;0.20;0.20;;;;;;;;;;5073220;28;20082;-85
2021/10/24 13:36:08;;;;;;;0.10;0.10;;;;;;;;;;5071206;28;20062;-86
2021/10/24 13:38:35;;;;;;;0.20;0.20;;;;;;;;;;5077837;28;20314;-86
2021/10/24 13:41:01;;;;;;;0.35;0.35;;;;;;;;;;5059395;28;20142;-86
2021/10/24 13:43:27;;;;;;;0.17;0.17;;;;;;;;;;5063945;28;20802;-86
2021/10/24 13:45:53;;;;;;;0.00;0.00;;;;;;;;;;5066222;28;20064;-85
2021/10/24 13:48:21;;;;;;;2.97;0.40;;;;;;;;;;5069883;28;20274;-86
2021/10/24 13:50:47;;;;;;;0.20;0.20;;;;;;;;;;5072843;28;20475;-86
2021/10/24 13:53:13;;;;;;;0.40;0.40;;;;;;;;;;5069056;28;20104;-85
2021/10/24 13:55:39;;;;;;;0.38;0.38;;;;;;;;;;5067686;28;20025;-86
2021/10/24 13:58:06;;;;;;;0.00;0.00;;;;;;;;;;5047935;28;20025;-86
2021/10/24 14:00:32;;;;;;;0.00;0.00;;;;;;;;;;5065309;28;20070;-86
2021/10/24 14:03:02;;;;;;;0.00;0.00;;;;;;;;;;5064941;28;20033;-86
2021/10/24 14:05:29;;;;;;;0.20;0.20;;;;;;;;;;5048797;28;20306;-86
2021/10/24 14:08:00;;;;;;;0.50;0.15;;;;;;;;;;5056701;28;20102;-86
2021/10/24 14:10:26;;;;;;;0.55;0.25;;;;;;;;;;5046249;28;20033;-86
2021/10/24 14:12:53;;;;;;;0.60;0.30;;;;;;;;;;5043803;28;20089;-87
2021/10/24 14:15:19;;;;;;;0.50;0.40;;;;;;;;;;5046045;28;20086;-86
2021/10/24 14:17:47;;;;;;;0.17;0.17;;;;;;;;;;5053410;28;20029;-86
2021/10/24 14:20:13;;;;;;;3.45;0.45;;;;;;;;;;5052302;28;20091;-86
2021/10/24 14:22:40;;;;;;;0.22;0.22;;;;;;;;;;5045339;28;20033;-86
2021/10/24 14:25:07;;;;;;;0.10;0.10;;;;;;;;;;5055722;28;20083;-84
2021/10/24 14:27:33;;;;;;;0.20;0.20;;;;;;;;;;5060287;28;20033;-86
2021/10/24 14:29:59;;;;;;;0.00;0.00;;;;;;;;;;5043356;28;20025;-86
2021/10/24 14:32:25;;;;;;;0.10;0.10;;;;;;;;;;5056346;28;20036;-87
2021/10/24 14:34:52;;;;;;;0.10;0.10;;;;;;;;;;5048669;28;20744;-86
2021/10/24 14:37:18;;;;;;;0.10;0.10;;;;;;;;;;5058492;28;20450;-85
2021/10/24 14:39:45;;;;;;;0.52;0.52;;;;;;;;;;5043873;28;20063;-85
2021/10/24 14:42:11;;;;;;;0.13;0.13;;;;;;;;;;5044899;28;20037;-84
2021/10/24 14:44:37;;;;;;;0.08;0.08;;;;;;;;;;5042353;28;20078;-84
2021/10/24 14:47:03;;;;;;;0.10;0.10;;;;;;;;;;5043255;28;20094;-85
2021/10/24 14:49:29;;;;;;;1.02;0.80;;;;;;;;;;5044331;28;20256;-85
2021/10/24 14:51:56;;;;;;;0.08;0.08;;;;;;;;;;5057518;28;20056;-86